createdAt,value
2022-11-22T00:00:17.735Z,7.63
2022-11-22T00:02:44.729Z,5.93
2022-11-22T00:05:12.125Z,8.53
2022-11-22T00:07:39.453Z,6.93
2022-11-22T00:10:08.240Z,9.33
2022-11-22T00:12:35.287Z,8.77
2022-11-22T00:15:02.435Z,7.07
2022-11-22T00:17:29.084Z,5.67
2022-11-22T00:19:55.728Z,10.00
2022-11-22T00:22:22.421Z,8.33
2022-11-22T00:24:51.315Z,5.47
2022-11-22T00:27:18.949Z,8.67
2022-11-22T00:29:45.617Z,9.57
2022-11-22T00:32:13.142Z,7.40
2022-11-22T00:34:40.334Z,5.93
2022-11-22T00:37:07.321Z,6.17
2022-11-22T00:39:34.457Z,7.57
2022-11-22T00:42:01.533Z,8.20
2022-11-22T00:44:28.594Z,6.90
2022-11-22T00:46:55.783Z,6.40
2022-11-22T00:49:22.498Z,6.90
2022-11-22T00:51:49.189Z,5.87
2022-11-22T00:54:16.286Z,6.33
2022-11-22T00:56:42.936Z,5.63
2022-11-22T00:59:10.014Z,4.97
2022-11-22T01:01:37.097Z,6.07
2022-11-22T01:04:03.918Z,4.30
2022-11-22T01:06:31.025Z,6.13
2022-11-22T01:08:58.064Z,4.63
2022-11-22T01:11:25.117Z,5.50
2022-11-22T01:13:51.786Z,5.63
2022-11-22T01:16:18.505Z,5.27
2022-11-22T01:18:45.779Z,3.63
2022-11-22T01:21:12.580Z,6.13
2022-11-22T01:23:39.767Z,4.63
2022-11-22T01:26:09.563Z,6.83
2022-11-22T01:28:36.735Z,3.97
2022-11-22T01:31:04.881Z,5.53
2022-11-22T01:33:32.020Z,8.90
2022-11-22T01:35:59.139Z,7.37
2022-11-22T01:38:26.252Z,5.87
2022-11-22T01:40:53.472Z,5.30
2022-11-22T01:43:26.103Z,6.40
2022-11-22T01:46:03.788Z,3.20
2022-11-22T01:48:54.443Z,3.83
2022-11-22T01:51:29.647Z,6.63
2022-11-22T01:54:00.530Z,5.53
2022-11-22T01:56:29.646Z,4.23
2022-11-22T01:59:03.637Z,5.83
2022-11-22T02:01:30.935Z,4.07
2022-11-22T02:04:00.600Z,4.30
2022-11-22T02:06:58.471Z,3.60
2022-11-22T02:09:26.760Z,2.70
2022-11-22T02:11:58.349Z,5.00
2022-11-22T02:14:26.633Z,4.73
2022-11-22T02:16:53.788Z,5.80
2022-11-22T02:19:45.423Z,5.27
2022-11-22T02:22:32.871Z,5.80
2022-11-22T02:25:15.455Z,5.77
2022-11-22T02:27:42.320Z,3.23
2022-11-22T02:30:09.375Z,5.10
2022-11-22T02:32:36.136Z,4.17
2022-11-22T02:35:03.004Z,5.07
2022-11-22T02:37:32.626Z,3.13
2022-11-22T02:40:07.558Z,7.07
2022-11-22T02:42:35.492Z,5.27
2022-11-22T02:45:02.574Z,3.30
2022-11-22T02:47:29.655Z,3.87
2022-11-22T02:49:56.785Z,3.20
2022-11-22T02:52:23.471Z,3.43
2022-11-22T02:54:50.567Z,3.37
2022-11-22T02:57:17.218Z,2.93
2022-11-22T02:59:43.874Z,5.90
2022-11-22T03:02:10.528Z,4.53
2022-11-22T03:04:37.696Z,2.93
2022-11-22T03:07:04.496Z,3.00
2022-11-22T03:09:32.304Z,3.97
2022-11-22T03:11:59.376Z,2.87
2022-11-22T03:14:26.336Z,4.03
2022-11-22T03:16:53.381Z,4.73
2022-11-22T03:19:20.565Z,2.30
2022-11-22T03:21:47.848Z,2.53
2022-11-22T03:24:14.955Z,5.93
2022-11-22T03:26:42.270Z,6.23
2022-11-22T03:29:08.942Z,4.77
2022-11-22T03:31:36.146Z,4.43
2022-11-22T03:34:02.835Z,3.93
2022-11-22T03:36:29.924Z,2.80
2022-11-22T03:38:56.965Z,2.60
2022-11-22T03:41:23.646Z,7.53
2022-11-22T03:43:50.315Z,2.70
2022-11-22T03:46:19.547Z,4.80
2022-11-22T03:48:46.989Z,4.40
2022-11-22T03:51:13.902Z,3.03
2022-11-22T03:53:40.968Z,5.53
2022-11-22T03:56:07.704Z,3.77
2022-11-22T03:58:34.660Z,3.33
2022-11-22T04:01:01.826Z,4.67
2022-11-22T04:03:28.801Z,3.50
2022-11-22T04:05:55.939Z,4.07
2022-11-22T04:08:22.694Z,5.47
2022-11-22T04:10:50.516Z,6.17
2022-11-22T04:13:17.502Z,3.47
2022-11-22T04:15:44.552Z,6.83
2022-11-22T04:18:12.419Z,9.03
2022-11-22T04:20:57.980Z,4.33
2022-11-22T04:23:32.271Z,5.33
2022-11-22T04:26:00.808Z,6.50
2022-11-22T04:28:53.581Z,5.37
2022-11-22T04:31:33.365Z,5.73
2022-11-22T04:34:00.023Z,3.70
2022-11-22T04:36:27.085Z,9.80
2022-11-22T04:38:54.165Z,8.00
2022-11-22T04:41:21.217Z,5.93
2022-11-22T04:44:06.536Z,5.40
2022-11-22T04:46:33.646Z,4.80
2022-11-22T04:49:00.689Z,7.27
2022-11-22T04:51:46.807Z,6.43
2022-11-22T04:54:13.854Z,6.63
2022-11-22T04:56:40.545Z,5.37
2022-11-22T04:59:07.255Z,8.27
2022-11-22T05:01:34.381Z,7.47
2022-11-22T05:04:01.161Z,7.57
2022-11-22T05:06:28.209Z,7.43
2022-11-22T05:08:55.256Z,4.77
2022-11-22T05:11:21.910Z,9.27
2022-11-22T05:13:48.604Z,11.97
2022-11-22T05:16:15.941Z,11.87
2022-11-22T05:18:42.753Z,13.27
2022-11-22T05:21:11.412Z,10.00
2022-11-22T05:23:57.003Z,10.03
2022-11-22T05:26:35.148Z,10.43
2022-11-22T05:29:10.363Z,9.27
2022-11-22T05:31:38.497Z,9.83
2022-11-22T05:34:05.595Z,7.23
2022-11-22T05:36:34.135Z,10.17
2022-11-22T05:39:01.465Z,7.37
2022-11-22T05:41:28.582Z,8.50
2022-11-22T05:43:56.729Z,7.60
2022-11-22T05:46:28.938Z,11.47
2022-11-22T05:48:57.671Z,10.57
2022-11-22T05:51:32.267Z,9.77
2022-11-22T05:54:00.993Z,9.23
2022-11-22T05:56:27.759Z,7.90
2022-11-22T05:58:54.955Z,9.80
2022-11-22T06:01:23.534Z,11.03
2022-11-22T06:03:50.769Z,10.73
2022-11-22T06:06:17.886Z,13.20
2022-11-22T06:08:47.673Z,7.97
2022-11-22T06:11:27.806Z,11.13
2022-11-22T06:13:57.562Z,14.87
2022-11-22T06:16:25.941Z,13.63
2022-11-22T06:18:53.702Z,11.30
2022-11-22T06:21:23.726Z,10.83
2022-11-22T06:23:51.721Z,9.97
2022-11-22T06:26:20.359Z,8.93
2022-11-22T06:28:47.820Z,8.60
2022-11-22T06:31:23.002Z,8.70
2022-11-22T06:33:50.464Z,13.83
2022-11-22T06:36:19.926Z,11.87
2022-11-22T06:38:46.764Z,10.10
2022-11-22T06:41:16.170Z,9.57
2022-11-22T06:43:48.631Z,9.83
2022-11-22T06:46:17.620Z,11.17
2022-11-22T06:48:44.293Z,9.73
2022-11-22T06:51:14.098Z,8.57
2022-11-22T06:53:49.267Z,9.07
2022-11-22T06:56:16.672Z,11.20
2022-11-22T06:58:44.217Z,10.50
2022-11-22T07:01:16.605Z,9.10
2022-11-22T07:03:43.952Z,13.80
2022-11-22T07:06:12.628Z,8.20
2022-11-22T07:08:40.030Z,11.37
2022-11-22T07:11:12.545Z,11.67
2022-11-22T07:13:39.695Z,20.60
2022-11-22T07:16:08.479Z,11.43
2022-11-22T07:18:35.577Z,15.33
2022-11-22T07:21:12.852Z,13.20
2022-11-22T07:23:44.280Z,13.13
2022-11-22T07:26:12.325Z,15.53
2022-11-22T07:28:39.380Z,16.27
2022-11-22T07:31:08.293Z,12.43
2022-11-22T07:33:35.395Z,11.53
2022-11-22T07:36:10.153Z,12.20
2022-11-22T07:38:38.071Z,12.40
2022-11-22T07:41:05.993Z,11.80
2022-11-22T07:43:33.401Z,9.23
2022-11-22T07:46:00.887Z,8.93
2022-11-22T07:48:27.580Z,13.80
2022-11-22T07:50:54.661Z,7.43
2022-11-22T07:53:21.764Z,15.07
2022-11-22T07:55:48.879Z,8.73
2022-11-22T07:58:15.638Z,8.73
2022-11-22T08:00:42.326Z,9.77
2022-11-22T08:03:09.566Z,10.30
2022-11-22T08:05:36.265Z,13.73
2022-11-22T08:08:03.449Z,14.17
2022-11-22T08:10:30.115Z,14.90
2022-11-22T08:13:00.053Z,7.43
2022-11-22T08:15:27.185Z,13.17
2022-11-22T08:17:53.923Z,10.73
2022-11-22T08:20:20.683Z,11.87
2022-11-22T08:22:47.358Z,7.60
2022-11-22T08:25:14.530Z,8.07
2022-11-22T08:27:42.894Z,11.07
2022-11-22T08:30:12.755Z,7.83
2022-11-22T08:32:39.823Z,8.47
2022-11-22T08:35:07.275Z,7.53
2022-11-22T08:37:34.623Z,8.77
2022-11-22T08:40:01.328Z,8.47
2022-11-22T08:42:28.004Z,7.73
2022-11-22T08:44:55.529Z,13.27
2022-11-22T08:47:22.207Z,6.03
2022-11-22T08:49:49.349Z,11.17
2022-11-22T08:52:16.094Z,9.37
2022-11-22T08:54:43.139Z,8.67
2022-11-22T08:57:09.805Z,9.87
2022-11-22T08:59:36.986Z,6.17
2022-11-22T09:02:03.801Z,6.07
2022-11-22T09:04:30.580Z,10.57
2022-11-22T09:09:46.875Z,7.43
2022-11-22T09:12:14.231Z,7.87
2022-11-22T09:14:41.392Z,10.83
2022-11-22T09:17:08.690Z,9.30
2022-11-22T09:19:38.009Z,5.17
2022-11-22T09:22:05.138Z,6.53
2022-11-22T09:24:31.795Z,9.23
2022-11-22T09:26:58.473Z,7.90
2022-11-22T09:29:26.321Z,10.57
2022-11-22T09:31:53.039Z,6.67
2022-11-22T09:34:20.128Z,8.53
2022-11-22T09:36:46.753Z,7.17
2022-11-22T09:39:13.494Z,8.43
2022-11-22T09:42:23.327Z,9.87
2022-11-22T09:45:11.669Z,5.80
2022-11-22T09:47:59.426Z,6.80
2022-11-22T09:51:01.324Z,4.53
2022-11-22T09:53:45.606Z,6.73
2022-11-22T09:56:15.003Z,8.47
2022-11-22T09:58:42.108Z,9.20
2022-11-22T10:01:22.770Z,6.90
2022-11-22T10:03:58.777Z,8.37
2022-11-22T10:06:34.891Z,8.17
2022-11-22T10:09:13.734Z,6.67
2022-11-22T10:12:00.828Z,8.20
2022-11-22T10:15:07.857Z,13.63
2022-11-22T10:17:49.736Z,7.23
2022-11-22T10:20:17.394Z,7.43
2022-11-22T10:22:44.479Z,6.53
2022-11-22T10:25:36.042Z,7.60
2022-11-22T10:28:38.902Z,8.23
2022-11-22T10:31:20.475Z,5.80
2022-11-22T10:33:47.522Z,9.63
2022-11-22T10:36:20.384Z,4.50
2022-11-22T10:38:47.432Z,7.43
2022-11-22T10:41:32.489Z,4.70
2022-11-22T10:44:16.734Z,10.77
2022-11-22T10:47:19.996Z,8.20
2022-11-22T10:50:05.262Z,6.60
2022-11-22T10:52:53.479Z,7.03
2022-11-22T10:55:44.567Z,3.93
2022-11-22T10:58:23.592Z,4.90
2022-11-22T11:01:02.277Z,6.23
2022-11-22T11:03:51.210Z,6.73
2022-11-22T11:06:29.653Z,5.17
2022-11-22T11:10:02.751Z,5.80
2022-11-22T11:12:03.199Z,4.53
2022-11-22T11:14:48.469Z,2.63
2022-11-22T11:17:20.938Z,4.83
2022-11-22T11:19:50.482Z,5.13
2022-11-22T11:22:42.713Z,5.13
2022-11-22T11:25:27.215Z,8.00
2022-11-22T11:27:54.175Z,47.40
2022-11-22T11:30:20.959Z,2.97
2022-11-22T11:32:55.653Z,3.70
2022-11-22T11:35:26.748Z,4.00
2022-11-22T11:37:55.681Z,6.97
2022-11-22T11:40:28.289Z,3.87
2022-11-22T11:43:21.235Z,5.00
2022-11-22T11:45:48.287Z,3.50
2022-11-22T11:48:38.068Z,3.90
2022-11-22T11:51:15.759Z,3.37
2022-11-22T11:54:03.579Z,3.27
2022-11-22T11:56:40.696Z,5.40
2022-11-22T11:59:15.595Z,4.67
2022-11-22T12:02:14.531Z,4.00
2022-11-22T12:04:50.364Z,2.67
2022-11-22T12:07:25.352Z,5.53
2022-11-22T12:09:54.505Z,3.87
2022-11-22T12:12:39.376Z,4.57
2022-11-22T12:15:26.118Z,4.77
2022-11-22T12:18:11.974Z,3.03
2022-11-22T12:21:23.267Z,5.40
2022-11-22T12:24:19.518Z,4.47
2022-11-22T12:26:46.077Z,4.00
2022-11-22T12:29:14.400Z,3.87
2022-11-22T12:31:44.425Z,4.93
2022-11-22T12:34:18.495Z,5.43
2022-11-22T12:37:00.569Z,6.93
2022-11-22T12:39:29.150Z,4.03
2022-11-22T12:42:08.859Z,3.47
2022-11-22T12:44:42.389Z,4.60
2022-11-22T12:47:18.252Z,4.70
2022-11-22T12:50:24.834Z,3.77
2022-11-22T12:53:04.950Z,3.77
2022-11-22T12:55:42.626Z,3.87
2022-11-22T12:58:12.406Z,4.97
2022-11-22T13:00:52.184Z,3.30
2022-11-22T13:03:30.989Z,4.90
2022-11-22T13:06:00.474Z,5.33
2022-11-22T13:08:39.545Z,5.43
2022-11-22T13:11:06.669Z,3.47
2022-11-22T13:13:46.464Z,4.93
2022-11-22T13:16:13.922Z,5.50
2022-11-22T13:19:00.210Z,4.97
2022-11-22T13:21:29.952Z,4.83
2022-11-22T13:24:14.521Z,7.40
2022-11-22T13:27:16.026Z,3.70
2022-11-22T13:29:43.465Z,5.47
2022-11-22T13:32:13.116Z,4.40
2022-11-22T13:35:01.034Z,4.40
2022-11-22T13:37:30.346Z,4.70
2022-11-22T13:39:57.603Z,3.73
2022-11-22T13:42:26.974Z,4.40
2022-11-22T13:44:56.625Z,4.93
2022-11-22T13:47:23.751Z,2.60
2022-11-22T13:49:53.519Z,4.17
2022-11-22T13:52:20.694Z,1.87
2022-11-22T13:54:47.890Z,1.10
2022-11-22T13:57:26.917Z,2.73
2022-11-22T14:00:14.715Z,1.93
2022-11-22T14:03:11.490Z,1.30
2022-11-22T14:05:41.963Z,1.40
2022-11-22T14:08:29.623Z,2.77
2022-11-22T14:10:56.260Z,2.37
2022-11-22T14:13:32.300Z,2.97
2022-11-22T14:16:08.074Z,3.07
2022-11-22T14:18:55.372Z,1.20
2022-11-22T14:21:41.188Z,1.63
2022-11-22T14:24:33.203Z,1.83
2022-11-22T14:27:09.688Z,1.93
2022-11-22T14:29:37.030Z,2.87
2022-11-22T14:32:24.672Z,2.40
2022-11-22T14:35:06.341Z,2.50
2022-11-22T14:37:34.871Z,2.00
2022-11-22T14:40:07.325Z,2.40
2022-11-22T14:42:37.034Z,1.90
2022-11-22T14:45:12.220Z,1.87
2022-11-22T14:47:54.163Z,2.30
2022-11-22T14:50:44.477Z,1.97
2022-11-22T14:53:29.938Z,1.63
2022-11-22T14:56:23.409Z,1.47
2022-11-22T14:59:27.876Z,1.50
2022-11-22T15:02:03.575Z,1.33
2022-11-22T15:09:10.056Z,2.53
2022-11-22T15:09:19.185Z,1.53
2022-11-22T15:11:04.479Z,3.20
2022-11-22T15:13:56.077Z,1.73
2022-11-22T15:57:45.701Z,1.20
2022-11-22T16:00:29.414Z,1.30
2022-11-22T16:03:06.721Z,1.60
2022-11-22T16:06:08.430Z,3.27
2022-11-22T16:08:22.334Z,1.50
2022-11-22T16:10:50.985Z,1.50
2022-11-22T16:13:20.365Z,1.40
2022-11-22T16:16:11.104Z,1.20
2022-11-22T16:18:39.225Z,1.20
2022-11-22T16:21:11.991Z,1.73
2022-11-22T16:23:40.056Z,1.63
2022-11-22T16:26:30.001Z,1.43
2022-11-22T16:29:16.047Z,1.37
2022-11-22T16:31:42.739Z,2.67
2022-11-22T16:34:16.046Z,4.13
2022-11-22T16:36:43.132Z,2.20
2022-11-22T16:39:09.864Z,3.13
2022-11-22T16:41:37.013Z,3.57
2022-11-22T16:44:12.539Z,2.33
2022-11-22T16:46:42.697Z,2.40
2022-11-22T16:49:20.982Z,2.53
2022-11-22T16:51:50.201Z,1.60
2022-11-22T16:54:19.375Z,1.47
2022-11-22T16:56:46.742Z,1.40
2022-11-22T16:59:13.869Z,2.37
2022-11-22T17:01:42.606Z,1.43
2022-11-22T17:04:20.446Z,1.97
2022-11-22T17:06:47.594Z,1.67
2022-11-22T17:09:14.255Z,2.23
2022-11-22T17:11:43.325Z,1.80
2022-11-22T17:14:17.982Z,2.37
2022-11-22T17:16:48.145Z,2.17
2022-11-22T17:19:45.693Z,1.97
2022-11-22T17:22:06.871Z,2.43
2022-11-22T17:24:34.344Z,3.40
2022-11-22T17:27:01.577Z,1.77
2022-11-22T17:29:49.365Z,2.00
2022-11-22T17:32:15.363Z,3.13
2022-11-22T17:34:42.484Z,2.30
2022-11-22T17:37:12.791Z,1.67
2022-11-22T17:39:40.181Z,1.93
2022-11-22T17:42:07.318Z,1.70
2022-11-22T17:44:34.112Z,1.63
2022-11-22T17:47:00.926Z,1.73
2022-11-22T17:49:28.565Z,1.63
2022-11-22T17:51:56.121Z,2.37
2022-11-22T17:54:22.773Z,2.70
2022-11-22T17:56:49.871Z,1.70
2022-11-22T17:59:16.564Z,2.57
2022-11-22T18:01:43.365Z,2.53
2022-11-22T18:04:10.264Z,1.70
2022-11-22T18:06:37.104Z,2.67
2022-11-22T18:09:04.285Z,1.93
2022-11-22T18:11:31.253Z,6.00
2022-11-22T18:13:58.336Z,2.00
2022-11-22T18:16:28.878Z,2.67
2022-11-22T18:18:57.889Z,1.60
2022-11-22T18:21:29.795Z,1.80
2022-11-22T18:23:58.130Z,1.70
2022-11-22T18:26:41.625Z,2.07
2022-11-22T18:31:57.529Z,3.23
2022-11-22T18:34:24.446Z,1.83
2022-11-22T18:37:07.498Z,4.57
2022-11-22T18:39:37.800Z,1.77
2022-11-22T18:42:07.349Z,2.43
2022-11-22T18:44:34.017Z,2.53
2022-11-22T18:47:01.373Z,1.80
2022-11-22T18:49:28.050Z,2.27
2022-11-22T18:51:55.616Z,3.03
2022-11-22T18:54:22.930Z,3.43
2022-11-22T18:56:52.928Z,2.57
2022-11-22T18:59:20.168Z,1.83
2022-11-22T19:01:46.923Z,3.77
2022-11-22T19:04:15.088Z,2.73
2022-11-22T19:06:42.845Z,2.70
2022-11-22T19:09:10.021Z,2.73
2022-11-22T19:11:37.183Z,2.53
2022-11-22T19:14:04.361Z,1.90
2022-11-22T19:16:31.537Z,3.70
2022-11-22T19:18:58.749Z,2.00
2022-11-22T19:21:28.381Z,5.30
2022-11-22T19:23:56.431Z,2.43
2022-11-22T19:26:25.549Z,2.17
2022-11-22T19:28:55.616Z,2.07
2022-11-22T19:31:25.124Z,3.10
2022-11-22T19:33:51.897Z,3.30
2022-11-22T19:36:20.991Z,1.97
2022-11-22T19:38:48.620Z,2.93
2022-11-22T19:41:20.212Z,2.77
2022-11-22T19:43:48.152Z,1.90
2022-11-22T19:46:15.736Z,2.63
2022-11-22T19:48:47.059Z,3.13
2022-11-22T19:51:15.543Z,1.73
2022-11-22T19:53:42.910Z,1.90
2022-11-22T19:56:15.133Z,2.57
2022-11-22T19:58:42.974Z,3.13
2022-11-22T20:01:12.596Z,2.00
2022-11-22T20:03:41.258Z,3.17
2022-11-22T20:06:09.873Z,2.57
2022-11-22T20:08:37.407Z,4.27
2022-11-22T20:11:10.095Z,4.03
2022-11-22T20:13:42.619Z,2.63
2022-11-22T20:16:13.516Z,2.37
2022-11-22T20:18:40.717Z,3.77
2022-11-22T20:21:11.841Z,3.20
2022-11-22T20:23:39.365Z,2.30
2022-11-22T20:26:11.237Z,3.83
2022-11-22T20:28:39.286Z,2.13
2022-11-22T20:31:12.669Z,3.17
2022-11-22T20:33:41.858Z,3.37
2022-11-22T20:36:25.862Z,3.60
2022-11-22T20:38:53.537Z,2.53
2022-11-22T20:41:23.252Z,3.67
2022-11-22T20:43:50.497Z,3.77
2022-11-22T20:46:22.542Z,4.57
2022-11-22T20:48:50.018Z,4.07
2022-11-22T20:51:19.297Z,3.93
2022-11-22T20:53:46.768Z,2.97
2022-11-22T20:56:14.838Z,4.53
2022-11-22T20:58:41.909Z,4.27
2022-11-22T21:01:12.791Z,2.60
2022-11-22T21:03:39.880Z,4.27
2022-11-22T21:06:07.017Z,4.43
2022-11-22T21:08:33.998Z,3.80
2022-11-22T21:11:08.239Z,4.37
2022-11-22T21:13:35.314Z,6.87
2022-11-22T21:16:21.542Z,5.50
2022-11-22T21:19:01.554Z,4.47
2022-11-22T21:21:29.838Z,4.30
2022-11-22T21:23:59.429Z,6.37
2022-11-22T21:26:27.213Z,5.50
2022-11-22T21:28:54.436Z,3.33
2022-11-22T21:31:22.485Z,3.87
2022-11-22T21:33:49.537Z,4.83
2022-11-22T21:36:16.625Z,6.60
2022-11-22T21:38:43.685Z,5.60
2022-11-22T21:44:07.244Z,9.00
2022-11-22T21:46:33.945Z,7.03
2022-11-22T21:49:01.027Z,6.00
2022-11-22T21:51:27.952Z,6.13
2022-11-22T21:53:58.833Z,7.87
2022-11-22T21:56:26.599Z,5.10
2022-11-22T21:58:53.338Z,6.63
2022-11-22T22:01:20.044Z,5.13
2022-11-22T22:03:47.186Z,7.73
2022-11-22T22:06:13.842Z,6.10
2022-11-22T22:08:40.923Z,7.10
2022-11-22T22:11:08.160Z,4.50
2022-11-22T22:13:34.917Z,3.43
2022-11-22T22:16:06.533Z,6.30
2022-11-22T22:18:37.181Z,6.33
2022-11-22T22:21:07.158Z,4.60
2022-11-22T22:23:35.408Z,5.00
2022-11-22T22:26:04.371Z,5.27
2022-11-22T22:28:33.020Z,5.63
2022-11-22T22:31:08.709Z,6.20
2022-11-22T22:33:37.109Z,6.90
2022-11-22T22:36:04.783Z,6.90
2022-11-22T22:38:32.530Z,8.23
2022-11-22T22:41:01.613Z,5.60
2022-11-22T22:43:33.454Z,5.90
2022-11-22T22:46:06.470Z,6.73
2022-11-22T22:48:33.725Z,4.70
2022-11-22T22:51:08.024Z,6.93
2022-11-22T22:53:35.354Z,5.87
2022-11-22T22:56:02.477Z,5.43
2022-11-22T22:58:29.583Z,6.40
2022-11-22T23:01:12.458Z,6.57
2022-11-22T23:03:39.596Z,5.33
2022-11-22T23:06:08.138Z,6.07
2022-11-22T23:08:35.335Z,8.03
2022-11-22T23:11:10.307Z,4.43
2022-11-22T23:13:40.679Z,4.90
2022-11-22T23:16:10.160Z,7.07
2022-11-22T23:18:39.226Z,4.90
2022-11-22T23:21:07.763Z,6.13
2022-11-22T23:23:35.108Z,3.37
2022-11-22T23:26:07.650Z,5.37
2022-11-22T23:28:35.101Z,8.70
2022-11-22T23:31:10.368Z,6.90
2022-11-22T23:33:37.612Z,6.47
2022-11-22T23:36:09.572Z,6.90
2022-11-22T23:38:36.706Z,6.03
2022-11-22T23:41:04.137Z,6.60
2022-11-22T23:43:31.504Z,6.03
2022-11-22T23:45:58.673Z,4.87
2022-11-22T23:48:26.280Z,5.77
2022-11-22T23:50:53.028Z,4.10
2022-11-22T23:53:20.481Z,5.97
2022-11-22T23:55:47.615Z,6.37
2022-11-22T23:58:14.283Z,5.93
